Time;durP1;ratioP1;P1;durP2;ratioP2;P2;SDS_P1;SDS_P2;PMS_P1;PMS_P2;Temp;Humidity;BMP_temperature;BMP_pressure;BME280_temperature;BME280_humidity;BME280_pressure;Samples;Min_cycle;Max_cycle;Signal;HPM_P1;HPM_P2
2022/02/15 00:00:21;;;;;;;6.18;1.90;;;;;;;6.31;89.66;100565.16;5056400;28;20029;-72
2022/02/15 00:02:47;;;;;;;8.93;1.80;;;;;;;6.37;89.28;100563.72;5038471;28;20024;-74
2022/02/15 00:05:12;;;;;;;8.60;1.90;;;;;;;6.35;89.22;100564.84;5056352;28;20472;-72
2022/02/15 00:07:38;;;;;;;8.30;1.70;;;;;;;6.38;88.80;100565.31;5038637;28;20111;-72
2022/02/15 00:10:05;;;;;;;9.00;2.05;;;;;;;6.38;89.04;100565.31;5038463;28;20384;-72
2022/02/15 00:12:30;;;;;;;4.75;1.20;;;;;;;6.38;89.09;100567.06;5038214;28;20052;-72
2022/02/15 00:14:56;;;;;;;11.23;1.92;;;;;;;6.34;88.90;100569.16;5056319;28;20024;-72
2022/02/15 00:17:22;;;;;;;13.45;2.13;;;;;;;6.23;89.37;100572.09;5038341;28;20103;-72
2022/02/15 00:19:48;;;;;;;7.03;1.90;;;;;;;6.30;89.20;100571.28;5056222;28;20071;-72
2022/02/15 00:22:13;;;;;;;3.92;1.65;;;;;;;6.22;90.01;100580.75;5055816;28;20025;-72
2022/02/15 00:24:39;;;;;;;6.07;1.63;;;;;;;6.34;89.76;100574.31;5037482;28;20480;-73
2022/02/15 00:27:04;;;;;;;8.73;1.52;;;;;;;6.25;89.29;100583.78;5037477;28;20063;-73
2022/02/15 00:29:30;;;;;;;9.85;1.80;;;;;;;6.36;89.25;100577.53;5055861;28;20060;-72
2022/02/15 00:31:55;;;;;;;9.57;1.95;;;;;;;6.29;89.13;100585.06;5055878;28;20074;-72
2022/02/15 00:34:21;;;;;;;8.90;1.55;;;;;;;6.30;89.08;100578.16;5037931;28;20543;-72
2022/02/15 00:36:46;;;;;;;5.18;1.70;;;;;;;6.24;89.51;100573.66;5037920;28;20036;-73
2022/02/15 00:39:11;;;;;;;13.95;2.17;;;;;;;6.15;90.13;100579.78;5037862;28;20029;-72
2022/02/15 00:41:36;;;;;;;10.82;1.67;;;;;;;6.03;90.34;100574.19;5055792;28;20024;-72
2022/02/15 00:44:02;;;;;;;9.10;1.52;;;;;;;5.99;90.44;100589.13;5055645;28;20050;-72
2022/02/15 00:46:27;;;;;;;6.78;1.83;;;;;;;5.94;90.79;100588.00;5038145;28;20036;-72
2022/02/15 00:48:52;;;;;;;9.27;1.95;;;;;;;5.90;90.59;100582.34;5055625;28;20025;-72
2022/02/15 00:51:18;;;;;;;6.43;1.70;;;;;;;5.83;91.00;100583.94;5055642;28;20054;-73
2022/02/15 00:53:43;;;;;;;11.15;2.00;;;;;;;5.93;90.70;100579.50;5037653;28;20017;-73
2022/02/15 00:56:09;;;;;;;8.38;1.67;;;;;;;5.86;90.51;100584.41;5037481;28;20025;-73
2022/02/15 00:58:34;;;;;;;5.93;1.98;;;;;;;5.90;90.58;100587.50;5037586;28;20032;-73
2022/02/15 01:00:59;;;;;;;10.30;1.65;;;;;;;5.75;90.69;100600.13;5036615;28;20021;-72
2022/02/15 01:03:25;;;;;;;9.32;2.00;;;;;;;5.81;90.55;100596.94;5054829;28;20076;-72
2022/02/15 01:05:50;;;;;;;5.95;1.85;;;;;;;5.87;89.84;100585.25;5055086;28;20024;-72
2022/02/15 01:08:15;;;;;;;9.55;1.70;;;;;;;5.73;90.39;100602.06;5055211;28;20031;-73
2022/02/15 01:10:41;;;;;;;12.65;2.30;;;;;;;5.69;90.76;100605.09;5037369;28;20087;-72
2022/02/15 01:13:06;;;;;;;9.80;2.17;;;;;;;5.66;90.88;100611.34;5054967;28;20045;-72
2022/02/15 01:15:32;;;;;;;7.00;1.95;;;;;;;5.73;90.83;100614.09;5055156;28;20025;-72
2022/02/15 01:17:57;;;;;;;7.03;1.90;;;;;;;5.66;90.83;100612.13;5037230;28;20024;-73
2022/02/15 01:20:22;;;;;;;10.02;2.30;;;;;;;5.63;91.79;100619.34;5037144;28;20032;-73
2022/02/15 01:22:48;;;;;;;5.97;2.10;;;;;;;5.66;91.45;100622.38;5054916;28;20029;-73
2022/02/15 01:25:14;;;;;;;10.93;1.90;;;;;;;5.62;91.11;100617.75;5037155;28;20021;-72
2022/02/15 01:27:39;;;;;;;6.47;2.00;;;;;;;5.54;90.88;100602.34;5054811;28;20021;-72
2022/02/15 01:30:06;;;;;;;12.55;2.17;;;;;;;5.57;90.87;100623.34;5036926;28;20383;-70
2022/02/15 01:32:31;;;;;;;5.72;2.00;;;;;;;5.48;91.10;100619.16;5036752;28;20150;-69
2022/02/15 01:34:56;;;;;;;10.43;2.42;;;;;;;5.42;92.02;100630.84;5036897;28;20120;-70
2022/02/15 01:37:22;;;;;;;5.00;1.90;;;;;;;5.41;91.37;100628.47;5054670;28;20029;-70
2022/02/15 01:39:47;;;;;;;10.38;2.30;;;;;;;5.41;92.03;100638.72;5037426;28;20046;-70
2022/02/15 01:42:16;;;;;;;10.07;2.50;;;;;;;5.36;92.03;100636.59;5036630;28;20053;-69
2022/02/15 01:44:42;;;;;;;7.28;2.60;;;;;;;5.40;91.79;100632.75;5036594;28;20037;-69
2022/02/15 01:47:07;;;;;;;6.03;2.17;;;;;;;5.54;91.99;100635.69;5054513;28;20491;-69
2022/02/15 01:49:32;;;;;;;7.38;2.10;;;;;;;5.69;91.53;100641.00;5054431;28;20025;-71
2022/02/15 01:51:58;;;;;;;6.93;2.38;;;;;;;5.68;91.73;100640.19;5036250;28;20063;-68
2022/02/15 01:54:23;;;;;;;8.40;3.03;;;;;;;5.77;91.33;100646.13;5053368;28;20025;-68
2022/02/15 01:56:48;;;;;;;12.25;2.80;;;;;;;5.84;91.41;100654.78;5054192;28;20032;-70
2022/02/15 01:59:14;;;;;;;9.95;3.17;;;;;;;5.86;90.92;100651.09;5036371;28;20023;-69
2022/02/15 02:01:40;;;;;;;8.20;2.75;;;;;;;5.84;90.49;100647.91;5054145;28;20033;-70
2022/02/15 02:04:05;;;;;;;9.73;3.15;;;;;;;5.87;90.41;100655.28;5054019;28;20055;-70
2022/02/15 02:06:31;;;;;;;11.30;3.30;;;;;;;5.97;90.21;100657.72;5036283;28;20025;-69
2022/02/15 02:08:58;;;;;;;6.95;3.25;;;;;;;5.82;90.83;100651.59;5036158;28;20431;-70
2022/02/15 02:11:24;;;;;;;7.95;3.70;;;;;;;5.87;91.35;100655.28;5054043;28;20035;-69
2022/02/15 02:13:49;;;;;;;8.30;3.65;;;;;;;6.00;90.21;100659.16;5053676;28;20492;-69
2022/02/15 02:16:14;;;;;;;10.55;3.97;;;;;;;5.86;90.62;100661.38;5036007;28;20025;-69
2022/02/15 02:18:40;;;;;;;11.20;3.35;;;;;;;5.90;90.85;100659.31;5053251;28;20476;-69
2022/02/15 02:21:05;;;;;;;13.40;4.00;;;;;;;5.84;91.31;100658.16;5036052;28;20033;-69
2022/02/15 02:23:32;;;;;;;10.73;4.32;;;;;;;5.99;90.47;100663.50;5053689;28;20078;-70
2022/02/15 02:25:57;;;;;;;11.13;4.60;;;;;;;5.90;90.95;100659.31;5035888;28;20598;-69
2022/02/15 02:28:24;;;;;;;12.10;4.78;;;;;;;5.85;91.05;100652.06;5053702;28;20025;-70
2022/02/15 02:30:49;;;;;;;10.13;4.40;;;;;;;6.03;90.76;100658.84;5053690;28;20043;-69
2022/02/15 02:33:15;;;;;;;8.32;5.05;;;;;;;5.91;90.97;100649.84;5053795;28;20017;-71
2022/02/15 02:35:40;;;;;;;21.52;5.63;;;;;;;5.87;91.80;100657.06;5054251;28;20419;-69
2022/02/15 02:38:05;;;;;;;12.07;5.22;;;;;;;5.88;91.43;100656.88;5036425;28;20056;-69
2022/02/15 02:40:33;;;;;;;10.50;5.60;;;;;;;5.86;91.49;100658.78;5053798;28;20031;-70
2022/02/15 02:42:58;;;;;;;13.82;5.50;;;;;;;5.91;91.95;100658.34;5053385;28;20049;-69
2022/02/15 02:45:23;;;;;;;14.13;6.60;;;;;;;5.83;91.63;100648.06;5053476;28;20063;-70
2022/02/15 02:47:51;;;;;;;12.95;6.13;;;;;;;5.89;92.00;100660.25;5053370;28;20071;-70
2022/02/15 02:50:19;;;;;;;15.52;6.57;;;;;;;5.89;91.99;100671.31;5053346;28;20028;-70
2022/02/15 02:52:45;;;;;;;13.13;6.82;;;;;;;5.89;92.40;100663.59;5053470;28;20388;-71
2022/02/15 02:55:11;;;;;;;9.43;6.68;;;;;;;5.93;91.79;100660.72;5053221;28;20029;-69
2022/02/15 02:57:37;;;;;;;10.70;6.88;;;;;;;5.99;91.62;100657.56;5053446;28;20502;-69
2022/02/15 03:00:14;;;;;;;14.93;6.80;;;;;;;5.98;91.22;100661.09;5035349;28;20141;-69
2022/02/15 03:02:39;;;;;;;12.32;6.97;;;;;;;6.06;91.35;100653.41;5035026;28;20025;-70
2022/02/15 03:05:05;;;;;;;15.10;6.82;;;;;;;6.06;91.13;100661.09;5035469;28;20021;-69
2022/02/15 03:07:30;;;;;;;13.55;7.28;;;;;;;6.15;90.93;100675.53;5053157;28;20021;-69
2022/02/15 03:09:56;;;;;;;14.15;7.13;;;;;;;6.05;91.42;100667.19;5053178;28;20056;-71
2022/02/15 03:12:21;;;;;;;18.20;7.88;;;;;;;6.03;91.13;100676.81;5035028;28;20457;-69
2022/02/15 03:14:47;;;;;;;15.07;7.05;;;;;;;6.10;91.39;100673.44;5053140;28;20032;-69
2022/02/15 03:17:13;;;;;;;16.08;7.30;;;;;;;6.10;91.36;100680.34;5053045;28;20028;-70
2022/02/15 03:19:39;;;;;;;14.48;6.90;;;;;;;6.09;91.40;100683.84;5053026;28;20383;-69
2022/02/15 03:22:04;;;;;;;11.68;6.80;;;;;;;6.14;91.13;100684.19;5052808;28;20025;-70
2022/02/15 03:24:29;;;;;;;11.65;6.97;;;;;;;6.09;90.90;100684.66;5053136;28;20032;-70
2022/02/15 03:26:55;;;;;;;16.48;6.70;;;;;;;6.15;90.66;100690.13;5053022;28;20025;-69
2022/02/15 03:29:20;;;;;;;19.40;7.30;;;;;;;6.12;91.38;100693.00;5053464;28;20075;-69
2022/02/15 03:31:45;;;;;;;11.18;6.55;;;;;;;6.12;91.85;100706.63;5057120;28;20029;-69
2022/02/15 03:34:11;;;;;;;14.45;6.93;;;;;;;6.04;91.94;100706.63;5056929;28;20495;-69
2022/02/15 03:36:37;;;;;;;17.88;6.82;;;;;;;5.99;92.10;100719.94;5039134;28;20551;-70
2022/02/15 03:39:08;;;;;;;15.52;7.40;;;;;;;6.10;92.07;100716.28;5039035;28;20017;-69
2022/02/15 03:44:18;;;;;;;16.48;6.78;;;;;;;6.02;92.12;100723.94;5057064;28;20032;-70
2022/02/15 03:46:43;;;;;;;16.90;7.10;;;;;;;6.08;92.42;100733.56;5038997;28;20435;-69
2022/02/15 03:49:11;;;;;;;17.27;6.90;;;;;;;6.13;91.79;100736.47;5039010;28;20021;-72
2022/02/15 03:51:40;;;;;;;15.25;6.90;;;;;;;6.14;92.24;100737.28;5039057;28;20021;-72
2022/02/15 03:54:07;;;;;;;14.55;6.47;;;;;;;6.17;91.91;100734.38;5038914;28;20534;-73
2022/02/15 03:56:33;;;;;;;12.48;7.53;;;;;;;6.18;91.97;100733.41;5057035;28;20071;-73
2022/02/15 03:58:59;;;;;;;15.45;7.07;;;;;;;6.22;91.87;100729.59;5058017;28;20056;-72
2022/02/15 04:01:25;;;;;;;16.45;7.55;;;;;;;6.30;92.13;100739.84;5060602;28;20025;-73
2022/02/15 04:03:51;;;;;;;17.90;6.82;;;;;;;6.39;91.01;100740.63;5043000;28;20531;-73
2022/02/15 04:06:16;;;;;;;19.25;6.82;;;;;;;6.33;91.58;100747.25;5061393;28;20074;-73
2022/02/15 04:08:42;;;;;;;17.58;7.10;;;;;;;6.37;91.61;100748.50;5060965;28;20059;-73
2022/02/15 04:11:07;;;;;;;17.02;7.13;;;;;;;6.41;91.40;100752.34;5060755;28;20081;-73
2022/02/15 04:13:32;;;;;;;12.88;6.85;;;;;;;6.40;91.63;100757.66;5060428;28;20040;-73
2022/02/15 04:15:58;;;;;;;13.95;6.55;;;;;;;6.41;91.35;100767.75;5043105;28;20139;-72
2022/02/15 04:18:23;;;;;;;12.27;6.68;;;;;;;6.44;91.28;100764.88;5060545;28;20021;-72
2022/02/15 04:20:48;;;;;;;15.27;6.63;;;;;;;6.41;91.48;100764.38;5043422;28;20035;-74
2022/02/15 04:23:14;;;;;;;19.10;7.05;;;;;;;6.31;91.28;100752.53;5060705;28;20021;-74
2022/02/15 04:25:39;;;;;;;12.63;6.88;;;;;;;6.33;91.81;100776.28;5060885;28;20021;-73
2022/02/15 04:28:05;;;;;;;17.15;6.65;;;;;;;6.26;92.31;100774.50;5043086;28;20021;-74
2022/02/15 04:30:32;;;;;;;18.17;6.70;;;;;;;6.34;91.64;100774.50;5064970;28;20492;-78
2022/02/15 04:32:57;;;;;;;17.38;6.50;;;;;;;6.30;91.67;100771.47;5047141;28;20052;-75
2022/02/15 04:35:23;;;;;;;12.98;6.50;;;;;;;6.44;92.12;100782.03;5065460;28;20037;-73
2022/02/15 04:37:49;;;;;;;17.33;6.88;;;;;;;6.52;91.58;100787.19;5063447;28;20032;-76
2022/02/15 04:40:15;;;;;;;17.92;6.43;;;;;;;6.45;91.35;100778.53;5063354;28;20491;-76
2022/02/15 04:42:40;;;;;;;16.23;6.65;;;;;;;6.46;91.19;100783.50;5046559;28;20022;-76
2022/02/15 04:45:06;;;;;;;10.18;6.05;;;;;;;6.43;91.01;100796.66;5046344;28;20021;-74
2022/02/15 04:47:31;;;;;;;12.85;6.35;;;;;;;6.49;91.46;100790.06;5064191;28;20025;-76
2022/02/15 04:49:56;;;;;;;16.98;6.38;;;;;;;6.45;90.78;100787.03;5047014;28;20068;-74
2022/02/15 04:52:22;;;;;;;14.02;6.68;;;;;;;6.35;91.85;100780.44;5059800;28;20049;-73
2022/02/15 04:54:47;;;;;;;15.68;6.78;;;;;;;6.30;92.13;100796.28;5040577;28;20044;-73
2022/02/15 04:57:12;;;;;;;13.88;6.80;;;;;;;6.34;91.95;100795.03;5040090;28;20032;-73
2022/02/15 04:59:37;;;;;;;17.73;7.70;;;;;;;6.24;91.71;100794.38;5057541;28;20021;-73
2022/02/15 05:02:03;;;;;;;18.77;6.82;;;;;;;6.32;91.89;100808.00;5039415;28;20029;-73
2022/02/15 05:07:12;;;;;;;15.27;7.20;;;;;;;6.21;92.07;100805.75;5057082;28;20040;-72
2022/02/15 05:09:38;;;;;;;17.35;6.78;;;;;;;6.26;92.11;100803.53;5038958;28;20520;-73
2022/02/15 05:12:04;;;;;;;14.10;6.72;;;;;;;6.25;92.06;100809.63;5037953;28;20037;-72
2022/02/15 05:14:29;;;;;;;19.02;8.57;;;;;;;6.27;92.32;100805.13;5057088;28;20028;-73
2022/02/15 05:16:54;;;;;;;15.95;6.78;;;;;;;6.20;92.10;100799.03;5038377;28;20079;-73
2022/02/15 05:19:20;;;;;;;22.00;6.82;;;;;;;6.35;92.16;100822.31;5038005;28;20392;-73
2022/02/15 05:21:45;;;;;;;17.52;6.72;;;;;;;6.31;92.13;100816.69;5037800;28;20021;-73
2022/02/15 05:24:10;;;;;;;14.35;6.72;;;;;;;6.29;92.26;100816.03;5055836;28;20051;-73
2022/02/15 05:26:35;;;;;;;20.00;7.15;;;;;;;6.29;92.73;100821.16;5055857;28;20033;-72
2022/02/15 05:29:01;;;;;;;12.15;6.60;;;;;;;6.40;92.08;100826.97;5037676;28;20029;-72
2022/02/15 05:31:26;;;;;;;14.27;6.22;;;;;;;6.25;92.00;100822.44;5055400;28;20029;-73
2022/02/15 05:33:52;;;;;;;15.02;6.78;;;;;;;6.32;92.42;100827.75;5036793;28;20029;-74
2022/02/15 05:36:17;;;;;;;14.30;6.40;;;;;;;6.40;91.88;100829.53;5038012;28;20020;-73
2022/02/15 05:38:43;;;;;;;19.05;6.80;;;;;;;6.36;92.03;100836.75;5056135;28;20025;-73
2022/02/15 05:41:08;;;;;;;16.77;6.10;;;;;;;6.38;92.10;100832.25;5056063;28;20491;-74
2022/02/15 05:43:34;;;;;;;18.55;7.10;;;;;;;6.45;91.84;100832.44;5036691;28;20427;-73
2022/02/15 05:45:59;;;;;;;16.50;6.60;;;;;;;6.52;91.42;100831.63;5036691;28;20036;-73
2022/02/15 05:48:25;;;;;;;20.17;6.68;;;;;;;6.60;90.78;100848.03;5036800;28;20064;-73
2022/02/15 05:50:50;;;;;;;14.57;6.38;;;;;;;6.56;91.19;100837.28;5054624;28;20480;-73
2022/02/15 05:53:17;;;;;;;17.30;6.90;;;;;;;6.57;91.51;100841.44;5035497;28;20013;-73
2022/02/15 05:55:42;;;;;;;14.57;6.53;;;;;;;6.54;91.55;100837.41;5055699;28;20035;-73
2022/02/15 05:58:07;;;;;;;19.35;6.65;;;;;;;6.55;91.17;100846.72;5055071;28;20029;-73
2022/02/15 06:00:33;;;;;;;15.70;6.63;;;;;;;6.45;91.59;100837.56;5055731;28;20104;-73
2022/02/15 06:02:59;;;;;;;19.60;6.53;;;;;;;6.55;91.60;100845.91;5040845;28;20047;-73
2022/02/15 06:05:24;;;;;;;16.88;6.63;;;;;;;6.55;91.26;100844.16;5037105;28;20507;-73
2022/02/15 06:07:49;;;;;;;16.73;6.57;;;;;;;6.46;91.63;100827.13;5055742;28;20100;-72
2022/02/15 06:10:15;;;;;;;17.98;6.60;;;;;;;6.54;91.99;100847.69;5036941;28;20032;-73
2022/02/15 06:12:40;;;;;;;14.60;6.43;;;;;;;6.62;91.94;100851.22;5055713;28;20083;-73
2022/02/15 06:15:06;;;;;;;23.85;6.97;;;;;;;6.51;92.09;100849.78;5058689;28;20025;-73
2022/02/15 06:17:31;;;;;;;20.45;6.55;;;;;;;6.51;92.38;100860.03;5055267;28;20029;-72
2022/02/15 06:19:57;;;;;;;19.38;6.65;;;;;;;6.59;91.76;100857.50;5038950;28;20025;-73
2022/02/15 06:22:22;;;;;;;16.90;6.35;;;;;;;6.54;91.53;100864.88;5057182;28;20526;-73
2022/02/15 06:24:48;;;;;;;20.73;7.60;;;;;;;6.62;91.10;100867.44;5054135;28;20032;-73
2022/02/15 06:27:13;;;;;;;17.98;6.47;;;;;;;6.59;91.91;100865.19;5036035;28;20071;-73
2022/02/15 06:29:38;;;;;;;19.83;6.15;;;;;;;6.60;90.93;100860.88;5035983;28;20020;-73
2022/02/15 06:32:04;;;;;;;13.68;5.40;;;;;;;6.64;90.67;100872.41;5036868;28;20483;-73
2022/02/15 06:34:29;;;;;;;20.45;5.22;;;;;;;6.60;91.15;100874.50;5035787;28;20090;-72
2022/02/15 06:36:55;;;;;;;14.45;5.18;;;;;;;6.60;91.03;100877.06;5053611;28;20460;-72
2022/02/15 06:39:20;;;;;;;13.05;4.60;;;;;;;6.46;91.96;100875.13;5053544;28;20040;-73
2022/02/15 06:41:46;;;;;;;18.27;4.80;;;;;;;6.60;91.29;100881.41;5035605;28;20024;-73
2022/02/15 06:44:11;;;;;;;18.60;4.25;;;;;;;6.52;91.06;100877.03;5053566;28;20024;-73
2022/02/15 06:46:37;;;;;;;16.55;3.78;;;;;;;6.57;90.81;100877.38;5035630;28;20028;-73
2022/02/15 06:49:03;;;;;;;15.98;3.15;;;;;;;6.61;89.83;100888.94;5053696;28;20078;-72
2022/02/15 06:51:28;;;;;;;12.35;3.40;;;;;;;6.76;89.48;100891.69;5054580;28;20028;-71
2022/02/15 06:53:54;;;;;;;15.45;3.40;;;;;;;6.79;88.70;100886.25;5053519;28;20024;-73
2022/02/15 06:56:19;;;;;;;17.02;3.65;;;;;;;6.78;88.21;100885.41;5053561;28;20033;-72
2022/02/15 06:58:44;;;;;;;18.55;3.42;;;;;;;6.66;87.63;100865.34;5035381;28;20493;-72
2022/02/15 07:01:10;;;;;;;15.18;2.95;;;;;;;6.66;89.26;100894.41;5052280;28;20032;-73
2022/02/15 07:03:36;;;;;;;9.15;3.05;;;;;;;6.69;88.97;100896.66;5052333;28;20044;-73
2022/02/15 07:06:01;;;;;;;15.57;3.28;;;;;;;6.71;89.15;100899.88;5053026;28;20029;-73
2022/02/15 07:08:26;;;;;;;14.48;2.88;;;;;;;6.70;88.58;100898.28;5052004;28;20083;-73
2022/02/15 07:10:54;;;;;;;21.23;2.92;;;;;;;6.70;88.60;100895.72;5052707;28;20029;-73
2022/02/15 07:13:20;;;;;;;13.95;3.25;;;;;;;6.73;88.22;100905.66;5031979;28;20504;-73
2022/02/15 07:15:46;;;;;;;11.48;3.33;;;;;;;6.79;88.70;100911.94;5033173;28;20025;-73
2022/02/15 07:18:11;;;;;;;14.90;3.00;;;;;;;6.72;87.74;100916.88;5031628;28;20432;-72
2022/02/15 07:20:36;;;;;;;14.38;2.72;;;;;;;6.83;88.77;100912.41;5034219;28;20432;-73
2022/02/15 07:23:03;;;;;;;16.90;3.08;;;;;;;6.98;87.67;100918.53;5034923;28;20064;-72
2022/02/15 07:25:28;;;;;;;15.70;3.15;;;;;;;6.97;86.54;100914.34;5034007;28;20528;-73
2022/02/15 07:27:53;;;;;;;10.73;2.88;;;;;;;7.74;84.66;100924.22;5033644;28;20053;-73
2022/02/15 07:30:19;;;;;;;14.45;3.05;;;;;;;8.36;80.84;100916.63;5034396;28;20021;-73
2022/02/15 07:32:44;;;;;;;12.25;3.33;;;;;;;8.70;79.94;100925.81;5032094;28;20109;-72
2022/02/15 07:35:09;;;;;;;21.05;4.60;;;;;;;9.01;77.61;100933.47;5032573;28;20053;-72
2022/02/15 07:37:34;;;;;;;22.25;4.38;;;;;;;8.92;76.42;100937.91;5032006;28;20021;-73
2022/02/15 07:40:00;;;;;;;20.65;3.88;;;;;;;8.89;76.53;100933.09;5032941;28;20052;-73
2022/02/15 07:42:26;;;;;;;18.20;3.40;;;;;;;8.01;79.56;100947.00;5032200;28;20480;-73
2022/02/15 07:44:51;;;;;;;14.13;3.45;;;;;;;7.62;81.84;100944.34;5030799;28;20029;-73
2022/02/15 07:47:16;;;;;;;8.63;3.03;;;;;;;7.08;83.89;100942.31;5035983;28;20029;-75
2022/02/15 07:49:42;;;;;;;11.38;3.08;;;;;;;6.95;85.06;100955.59;5041400;28;20038;-72
2022/02/15 07:52:07;;;;;;;14.45;3.50;;;;;;;6.93;85.36;100947.28;5032600;28;20460;-72
2022/02/15 07:54:32;;;;;;;15.27;3.28;;;;;;;6.94;85.77;100950.66;5032001;28;20116;-72
2022/02/15 07:56:58;;;;;;;16.85;3.13;;;;;;;6.95;86.23;100947.09;5039279;28;20029;-74
2022/02/15 07:59:23;;;;;;;14.25;3.83;;;;;;;6.90;85.84;100944.19;5036931;28;20028;-73
2022/02/15 08:01:48;;;;;;;11.43;4.38;;;;;;;6.94;84.90;100955.78;5033592;28;20033;-74
2022/02/15 08:04:14;;;;;;;25.05;3.42;;;;;;;6.81;85.31;100965.72;5032532;28;20100;-73
2022/02/15 08:06:40;;;;;;;18.35;3.22;;;;;;;6.83;86.06;100968.94;5031276;28;20068;-73
2022/02/15 08:09:05;;;;;;;11.80;3.22;;;;;;;6.93;85.49;100964.44;5031005;28;20026;-73
2022/02/15 08:11:38;;;;;;;11.20;3.10;;;;;;;6.84;85.28;100961.06;5031304;28;20051;-73
2022/02/15 08:14:04;;;;;;;16.52;3.58;;;;;;;6.91;84.59;100961.25;5050917;28;20117;-73
2022/02/15 08:16:29;;;;;;;15.35;3.65;;;;;;;6.86;84.95;100951.44;5037697;28;20024;-73
2022/02/15 08:18:55;;;;;;;13.13;3.38;;;;;;;7.04;84.14;100961.56;5039308;28;20344;-73
2022/02/15 08:21:20;;;;;;;11.93;3.13;;;;;;;6.96;84.94;100959.81;5057071;28;20536;-74
2022/02/15 08:23:46;;;;;;;11.48;3.17;;;;;;;6.84;84.81;100963.63;5039572;28;20064;-73
2022/02/15 08:26:11;;;;;;;16.48;3.33;;;;;;;6.93;84.09;100967.84;5057488;28;20479;-73
2022/02/15 08:28:40;;;;;;;16.67;3.67;;;;;;;7.06;84.51;100977.63;5039407;28;20025;-73
2022/02/15 08:31:06;;;;;;;15.52;3.83;;;;;;;7.15;83.90;100976.69;5038785;28;20114;-72
2022/02/15 08:33:32;;;;;;;14.80;3.47;;;;;;;7.27;83.07;100972.03;5056715;28;20175;-73
2022/02/15 08:35:57;;;;;;;15.68;3.50;;;;;;;7.51;81.64;100978.94;5038941;28;20350;-73
2022/02/15 08:38:23;;;;;;;18.73;3.67;;;;;;;7.36;82.23;100973.63;5057482;28;20111;-72
2022/02/15 08:40:48;;;;;;;12.32;3.42;;;;;;;7.54;81.76;100981.19;5055849;28;20071;-73
2022/02/15 08:43:13;;;;;;;14.48;3.50;;;;;;;7.61;80.47;100983.91;5022234;28;20120;-72
2022/02/15 08:45:38;;;;;;;15.50;3.50;;;;;;;7.51;82.00;100978.13;5040430;28;20051;-72
2022/02/15 08:48:04;;;;;;;15.65;3.65;;;;;;;7.90;80.10;100973.88;5056464;28;20021;-73
2022/02/15 08:50:32;;;;;;;12.77;3.30;;;;;;;7.84;79.98;100966.81;5038225;28;20025;-74
2022/02/15 08:52:57;;;;;;;15.40;3.47;;;;;;;7.88;80.54;100973.28;5056913;28;20021;-73
2022/02/15 08:55:23;;;;;;;17.13;3.97;;;;;;;8.17;78.73;100977.06;5058120;28;20384;-72
2022/02/15 08:57:48;;;;;;;11.25;3.03;;;;;;;8.48;76.87;100960.84;5040649;28;20021;-72
2022/02/15 09:00:14;;;;;;;15.85;3.35;;;;;;;8.36;79.08;100963.75;5042029;28;20024;-76
2022/02/15 09:02:40;;;;;;;15.50;3.67;;;;;;;8.75;77.13;100957.03;5041587;28;20025;-78
2022/02/15 09:05:06;;;;;;;13.35;2.92;;;;;;;9.32;75.70;100966.94;5042220;28;20029;-73
2022/02/15 09:07:31;;;;;;;14.13;3.40;;;;;;;9.22;73.43;100954.25;5059810;28;20472;-79
2022/02/15 09:09:57;;;;;;;17.33;3.67;;;;;;;11.09;68.14;100966.97;5041722;28;20025;-73
2022/02/15 09:12:22;;;;;;;13.32;3.42;;;;;;;11.94;65.56;100979.78;5040529;28;20049;-78
2022/02/15 09:14:47;;;;;;;13.55;3.30;;;;;;;13.60;59.05;100968.19;5060007;28;20058;-78
2022/02/15 09:17:13;;;;;;;13.32;2.97;;;;;;;12.75;60.07;100967.94;5057243;28;20380;-72
2022/02/15 09:19:38;;;;;;;10.07;2.95;;;;;;;13.02;59.67;100979.94;5037522;28;20381;-73
2022/02/15 09:22:05;;;;;;;11.70;2.85;;;;;;;13.78;56.68;100978.72;5035560;28;20025;-74
2022/02/15 09:24:31;;;;;;;13.88;3.03;;;;;;;15.00;53.60;101002.25;5055063;28;20032;-74
2022/02/15 09:26:56;;;;;;;12.43;3.00;;;;;;;16.10;50.62;101004.31;5053665;28;20396;-74
2022/02/15 09:29:22;;;;;;;10.57;2.65;;;;;;;16.89;47.55;101007.75;5056914;28;20520;-75
2022/02/15 09:31:47;;;;;;;11.32;2.90;;;;;;;12.99;55.35;100988.13;5037539;28;20021;-74
2022/02/15 09:34:13;;;;;;;11.48;2.80;;;;;;;10.31;65.02;100985.63;5039618;28;20021;-71
2022/02/15 09:36:39;;;;;;;16.73;3.42;;;;;;;9.35;69.40;100991.53;5069460;28;20032;-75
2022/02/15 09:39:05;;;;;;;9.52;2.65;;;;;;;8.18;72.13;100988.16;5068282;28;20036;-73
2022/02/15 09:41:34;;;;;;;15.95;2.67;;;;;;;8.01;74.21;100997.69;5042303;28;20094;-73
2022/02/15 09:44:05;;;;;;;15.18;2.70;;;;;;;7.90;74.52;100998.81;5039972;28;20456;-76
2022/02/15 09:46:31;;;;;;;14.70;2.97;;;;;;;7.72;75.13;100999.00;5040694;28;20029;-73
2022/02/15 09:48:57;;;;;;;12.15;3.20;;;;;;;9.76;71.39;101009.28;5037009;28;20033;-73
2022/02/15 09:51:23;;;;;;;15.27;2.97;;;;;;;12.05;59.67;101001.72;5054511;28;20495;-73
2022/02/15 09:53:50;;;;;;;9.82;2.70;;;;;;;11.51;64.51;101007.53;5054277;28;20032;-73
2022/02/15 09:56:15;;;;;;;8.10;2.55;;;;;;;15.03;52.03;100987.00;5036700;28;20048;-73
2022/02/15 09:58:41;;;;;;;13.90;3.00;;;;;;;16.63;48.24;100998.44;5036501;28;20060;-74
2022/02/15 10:01:10;;;;;;;15.18;2.97;;;;;;;14.49;51.85;100992.69;5054880;28;20446;-73
2022/02/15 10:03:58;;;;;;;10.13;2.67;;;;;;;15.09;50.67;100998.38;5035899;28;20060;-74
2022/02/15 10:06:29;;;;;;;14.45;3.10;;;;;;;16.16;47.17;101000.84;5021377;28;20127;-75
2022/02/15 10:08:59;;;;;;;10.93;2.53;;;;;;;15.50;47.50;100992.63;5036595;28;20027;-73
2022/02/15 10:11:34;;;;;;;13.30;2.38;;;;;;;15.98;48.05;100997.22;5054242;28;20078;-73
2022/02/15 10:13:59;;;;;;;8.45;2.50;;;;;;;16.56;45.63;101000.34;5053926;28;20075;-73
2022/02/15 10:16:25;;;;;;;10.38;2.60;;;;;;;17.47;42.64;101001.81;5037658;28;20051;-74
2022/02/15 10:18:56;;;;;;;11.13;2.60;;;;;;;17.61;42.26;100986.72;5035980;28;20052;-74
2022/02/15 10:21:21;;;;;;;13.00;2.40;;;;;;;18.04;41.93;100981.13;5058398;28;20029;-75
2022/02/15 10:23:51;;;;;;;11.82;2.78;;;;;;;14.76;47.30;100989.00;5038472;28;20033;-76
2022/02/15 10:26:16;;;;;;;12.00;2.65;;;;;;;17.81;41.99;100973.31;5053342;28;20036;-76
2022/02/15 10:28:43;;;;;;;9.27;2.55;;;;;;;17.77;41.30;100986.00;5053176;28;20052;-74
2022/02/15 10:31:12;;;;;;;10.13;2.60;;;;;;;15.28;46.77;100979.22;5053266;28;20025;-75
2022/02/15 10:33:40;;;;;;;10.80;2.20;;;;;;;17.24;42.33;100963.44;5054137;28;20025;-74
2022/02/15 10:36:10;;;;;;;11.77;2.50;;;;;;;18.51;38.67;100966.28;5036439;28;20368;-74
2022/02/15 10:38:41;;;;;;;11.95;2.33;;;;;;;19.44;35.52;100962.25;5035263;28;20032;-75
2022/02/15 10:41:09;;;;;;;9.43;2.15;;;;;;;15.41;42.94;100964.50;5035788;28;20021;-73
2022/02/15 10:43:46;;;;;;;11.95;2.30;;;;;;;11.61;52.84;100961.41;5052715;28;20491;-74
2022/02/15 10:46:19;;;;;;;7.35;2.10;;;;;;;12.62;51.38;100953.91;5035515;28;20112;-73
2022/02/15 10:48:46;;;;;;;8.43;2.00;;;;;;;15.71;43.47;100959.44;5035352;28;20530;-73
2022/02/15 10:51:13;;;;;;;9.32;2.30;;;;;;;17.77;38.21;100956.47;5053038;28;20078;-74
2022/02/15 10:53:38;;;;;;;8.80;2.05;;;;;;;18.47;36.03;100955.47;5053648;28;20032;-75
2022/02/15 10:56:04;;;;;;;10.18;2.22;;;;;;;17.86;38.53;100954.31;5035143;28;20020;-74
2022/02/15 10:58:31;;;;;;;14.80;2.10;;;;;;;14.48;44.62;100962.53;5036520;28;20033;-74
2022/02/15 11:00:58;;;;;;;9.85;2.38;;;;;;;11.09;55.47;100939.31;5053067;28;20111;-73
2022/02/15 11:03:24;;;;;;;11.93;2.08;;;;;;;13.87;48.93;100954.16;5035208;28;20017;-74
2022/02/15 11:05:49;;;;;;;7.78;2.03;;;;;;;14.60;46.47;100942.66;5053240;28;20021;-72
2022/02/15 11:08:18;;;;;;;11.57;1.90;;;;;;;12.54;52.14;100956.69;5052875;28;20032;-73
2022/02/15 11:10:54;;;;;;;9.55;2.13;;;;;;;14.05;46.81;100948.28;5033543;28;20468;-73
2022/02/15 11:13:21;;;;;;;14.65;2.30;;;;;;;14.56;46.69;100968.31;5052201;28;20087;-74
2022/02/15 11:15:51;;;;;;;6.95;1.88;;;;;;;10.82;56.05;100961.56;5051465;28;20116;-74
2022/02/15 11:18:27;;;;;;;8.07;1.85;;;;;;;10.14;58.71;100948.84;5052896;28;20029;-73
2022/02/15 11:20:56;;;;;;;11.15;1.85;;;;;;;12.35;52.96;100967.81;5054308;28;20107;-73
2022/02/15 11:23:24;;;;;;;12.63;1.73;;;;;;;11.27;54.91;100960.34;5052730;28;20029;-71
2022/02/15 11:26:01;;;;;;;10.77;1.90;;;;;;;9.87;59.33;100952.06;5053466;28;20032;-70